CheckWX is a tool to help pilots better visualize weather data.  It is not intended as a substitute for an official pre-flight weather briefing.

15:19:56 UTC

KBDL METAR
Bradley International Airport
Windsor Locks, Connecticut, USA
Current

29 mins ago

KBDL 201451Z 19009KT 9SM FEW025 BKN140 23/19 A2977 RMK AO2 SLP081 T02330189 58009
Observed
May-20 @ 14:51 UTC
Wind
  • 190° at 9 KTS
Visibility
9 SM
Flight Rules
VFR
Cloud Levels
  • Few at 2,500' AGL
  • Broken at 14,000' AGL
Temperature
23°C / 73°F
Dewpoint
19°C / 66°F
Humidity
78%
Altimeter
29.77" Hg
Pressure
1008.12 hPa
Previous

1 hour ago

KBDL 201351Z 18009KT 7SM FEW008 FEW026 BKN130 BKN250 21/18 A2979 RMK AO2 SLP086 T02110178
Observed
May-20 @ 13:51 UTC
Wind
  • 180° at 9 KTS
Visibility
7 SM
Flight Rules
VFR
Cloud Levels
  • Few at 800' AGL
  • Few at 2,600' AGL
  • Broken at 13,000' AGL
  • Broken at 25,000' AGL
Temperature
21°C / 70°F
Dewpoint
18°C / 64°F
Humidity
83%
Altimeter
29.79" Hg
Pressure
1008.82 hPa
Previous

2 hours ago

KBDL 201336Z 17007KT 7SM SCT008 SCT026 BKN110 21/18 A2980 RMK AO2 T02110183
Observed
May-20 @ 13:36 UTC
Wind
  • 170° at 7 KTS
Visibility
7 SM
Flight Rules
VFR
Cloud Levels
  • Scattered at 800' AGL
  • Scattered at 2,600' AGL
  • Broken at 11,000' AGL
Temperature
21°C / 70°F
Dewpoint
18°C / 64°F
Humidity
83%
Altimeter
29.8" Hg
Pressure
1009.12 hPa